createdAt,value
2017-10-11T00:01:36.696Z,13.34
2017-10-11T00:04:07.418Z,13.29
2017-10-11T00:06:38.844Z,13.35
2017-10-11T00:09:08.688Z,13.33
2017-10-11T00:11:38.842Z,13.33
2017-10-11T00:14:08.869Z,13.39
2017-10-11T00:16:38.762Z,13.41
2017-10-11T00:19:08.955Z,13.40
2017-10-11T00:21:39.327Z,13.37
2017-10-11T00:24:09.420Z,13.39
2017-10-11T00:26:42.290Z,13.40
2017-10-11T00:29:12.367Z,13.39
2017-10-11T00:31:44.629Z,13.36
2017-10-11T00:34:15.078Z,13.39
2017-10-11T00:36:57.321Z,13.43
2017-10-11T00:39:27.904Z,13.47
2017-10-11T00:41:58.497Z,13.40
2017-10-11T00:44:28.023Z,13.38
2017-10-11T00:46:58.381Z,13.35
2017-10-11T00:49:28.961Z,13.33
2017-10-11T00:51:58.897Z,13.35
2017-10-11T00:54:29.129Z,13.34
2017-10-11T00:56:59.488Z,13.37
2017-10-11T00:59:29.670Z,13.38
2017-10-11T01:01:59.481Z,13.38
2017-10-11T01:04:29.269Z,13.40
2017-10-11T01:06:58.870Z,13.36
2017-10-11T01:09:29.125Z,13.34
2017-10-11T01:11:59.101Z,13.34
2017-10-11T01:14:29.278Z,13.34
2017-10-11T01:17:01.717Z,13.35
2017-10-11T01:19:34.058Z,13.35
2017-10-11T01:22:04.223Z,13.33
2017-10-11T01:24:34.275Z,13.34
2017-10-11T01:27:04.090Z,13.36
2017-10-11T01:29:34.242Z,13.38
2017-10-11T01:32:04.063Z,13.33
2017-10-11T01:34:34.079Z,13.37
2017-10-11T01:37:03.981Z,13.39
2017-10-11T01:39:33.665Z,13.37
2017-10-11T01:42:03.297Z,13.34
2017-10-11T01:44:33.492Z,13.40
2017-10-11T01:47:03.129Z,13.35
2017-10-11T01:49:32.975Z,13.34
2017-10-11T01:52:03.222Z,13.37
2017-10-11T01:54:32.912Z,13.38
2017-10-11T01:57:03.131Z,13.38
2017-10-11T01:59:33.020Z,13.42
2017-10-11T02:02:04.844Z,13.38
2017-10-11T02:04:36.239Z,13.40
2017-10-11T02:07:06.295Z,13.38
2017-10-11T02:09:35.912Z,13.39
2017-10-11T02:12:16.038Z,13.42
2017-10-11T02:14:47.429Z,13.41
2017-10-11T02:17:17.632Z,13.39
2017-10-11T02:19:47.578Z,13.40
2017-10-11T02:22:17.091Z,13.41
2017-10-11T02:24:46.628Z,13.41
2017-10-11T02:27:16.593Z,13.42
2017-10-11T02:29:47.080Z,13.41
2017-10-11T02:32:16.714Z,13.40
2017-10-11T02:34:48.873Z,13.39
2017-10-11T02:37:18.435Z,13.41
2017-10-11T02:39:48.502Z,13.46
2017-10-11T02:42:18.084Z,13.45
2017-10-11T02:44:47.596Z,13.43
2017-10-11T02:47:17.617Z,13.42
2017-10-11T02:49:50.549Z,13.41
2017-10-11T02:52:20.282Z,13.41
2017-10-11T02:54:50.183Z,13.35
2017-10-11T02:57:30.914Z,13.35
2017-10-11T03:00:00.829Z,13.37
2017-10-11T03:02:30.881Z,13.30
2017-10-11T03:05:01.272Z,13.26
2017-10-11T03:07:31.560Z,13.25
2017-10-11T03:10:02.044Z,13.29
2017-10-11T03:12:35.136Z,13.30
2017-10-11T03:15:12.493Z,13.37
2017-10-11T03:17:48.250Z,13.28
2017-10-11T03:20:19.082Z,13.24
2017-10-11T03:22:49.335Z,13.22
2017-10-11T03:25:19.987Z,13.22
2017-10-11T03:27:49.733Z,13.23
2017-10-11T03:30:19.490Z,13.21
2017-10-11T03:32:49.250Z,13.28
2017-10-11T03:35:20.382Z,13.26
2017-10-11T03:37:50.295Z,13.23
2017-10-11T03:40:21.584Z,13.20
2017-10-11T03:42:52.609Z,13.13
2017-10-11T03:45:22.347Z,13.14
2017-10-11T03:47:52.117Z,13.11
2017-10-11T03:50:26.465Z,13.09
2017-10-11T03:52:56.403Z,13.09
2017-10-11T03:55:25.812Z,13.12
2017-10-11T03:57:55.753Z,13.06
2017-10-11T04:00:25.410Z,12.99
2017-10-11T04:02:55.053Z,12.99
2017-10-11T04:05:24.774Z,12.91
2017-10-11T04:07:54.508Z,12.92
2017-10-11T04:10:24.405Z,12.90
2017-10-11T04:12:54.005Z,12.86
2017-10-11T04:15:23.949Z,12.84
2017-10-11T04:17:53.818Z,12.82
2017-10-11T04:20:23.851Z,12.81
2017-10-11T04:22:55.308Z,12.81
2017-10-11T04:25:35.486Z,12.78
2017-10-11T04:28:05.480Z,12.73
2017-10-11T04:30:37.008Z,12.75
2017-10-11T04:33:06.972Z,12.69
